createdAt,value
2023-06-25T00:01:28.789Z,5.88
2023-06-25T00:04:01.659Z,8.77
2023-06-25T00:06:34.277Z,8.95
2023-06-25T00:09:07.061Z,9.80
2023-06-25T00:11:39.683Z,9.75
2023-06-25T00:14:12.782Z,6.93
2023-06-25T00:16:45.275Z,7.47
2023-06-25T00:19:18.641Z,7.80
2023-06-25T00:21:51.155Z,9.82
2023-06-25T00:24:24.502Z,13.02
2023-06-25T00:26:57.062Z,7.88
2023-06-25T00:29:29.898Z,7.65
2023-06-25T00:32:03.641Z,6.97
2023-06-25T00:34:42.822Z,8.15
2023-06-25T00:37:17.971Z,11.13
2023-06-25T00:39:51.159Z,14.90
2023-06-25T00:42:25.442Z,12.05
2023-06-25T00:44:58.402Z,11.00
2023-06-25T00:47:30.984Z,11.23
2023-06-25T00:50:04.294Z,9.02
2023-06-25T00:52:36.865Z,15.07
2023-06-25T00:55:09.860Z,7.88
2023-06-25T00:57:42.665Z,12.18
2023-06-25T01:00:16.583Z,8.55
2023-06-25T01:03:01.585Z,8.70
2023-06-25T01:05:47.753Z,10.98
2023-06-25T01:08:22.455Z,12.07
2023-06-25T01:10:56.026Z,9.18
2023-06-25T01:13:28.563Z,8.32
2023-06-25T01:16:01.771Z,13.63
2023-06-25T01:21:14.546Z,13.43
2023-06-25T01:23:47.183Z,10.18
2023-06-25T01:26:20.314Z,15.82
2023-06-25T01:28:57.325Z,9.75
2023-06-25T01:31:32.799Z,7.80
2023-06-25T01:34:05.723Z,12.48
2023-06-25T01:36:41.373Z,9.02
2023-06-25T01:39:13.903Z,18.23
2023-06-25T01:41:47.932Z,14.82
2023-06-25T01:44:30.563Z,15.45
2023-06-25T01:47:03.827Z,13.00
2023-06-25T01:49:36.356Z,10.55
2023-06-25T01:52:09.630Z,9.80
2023-06-25T01:54:42.157Z,12.30
2023-06-25T01:57:15.082Z,12.35
2023-06-25T01:59:47.688Z,12.43
2023-06-25T02:02:20.610Z,14.38
2023-06-25T02:04:53.278Z,16.02
2023-06-25T02:07:26.199Z,14.13
2023-06-25T02:09:59.855Z,14.73
2023-06-25T02:12:32.912Z,13.88
2023-06-25T02:15:06.060Z,12.93
2023-06-25T02:17:39.524Z,22.85
2023-06-25T02:20:12.664Z,14.68
2023-06-25T02:22:49.159Z,15.98
2023-06-25T02:25:21.708Z,12.13
2023-06-25T02:27:54.692Z,14.70
2023-06-25T02:30:27.359Z,14.63
2023-06-25T02:33:00.235Z,15.98
2023-06-25T02:35:32.790Z,19.77
2023-06-25T02:38:05.718Z,13.63
2023-06-25T02:40:38.250Z,13.65
2023-06-25T02:43:11.104Z,15.77
2023-06-25T02:45:43.714Z,10.43
2023-06-25T02:48:17.868Z,16.83
2023-06-25T02:50:50.724Z,11.07
2023-06-25T02:53:23.618Z,20.33
2023-06-25T02:55:56.148Z,19.52
2023-06-25T02:58:28.997Z,14.07
2023-06-25T03:01:01.608Z,19.52
2023-06-25T03:03:34.579Z,18.23
2023-06-25T03:06:07.246Z,12.52
2023-06-25T03:08:40.540Z,16.77
2023-06-25T03:11:13.268Z,13.00
2023-06-25T03:13:46.247Z,11.88
2023-06-25T03:16:18.763Z,12.43
2023-06-25T03:18:51.616Z,14.43
2023-06-25T03:21:24.176Z,10.57
2023-06-25T03:23:57.035Z,8.02
2023-06-25T03:26:29.574Z,11.60
2023-06-25T03:29:02.396Z,9.00
2023-06-25T03:31:34.984Z,6.55
2023-06-25T03:34:07.842Z,12.43
2023-06-25T03:36:40.452Z,9.27
2023-06-25T03:39:13.386Z,12.85
2023-06-25T03:41:45.943Z,11.35
2023-06-25T03:44:18.939Z,9.05
2023-06-25T03:46:51.522Z,13.38
2023-06-25T03:49:24.386Z,15.60
2023-06-25T03:51:56.928Z,8.70
2023-06-25T03:54:29.805Z,10.25
2023-06-25T03:57:02.457Z,10.50
2023-06-25T03:59:35.592Z,7.90
2023-06-25T04:02:09.052Z,7.70
2023-06-25T04:04:42.474Z,8.93
2023-06-25T04:07:15.106Z,8.60
2023-06-25T04:09:48.259Z,10.20
2023-06-25T04:12:21.029Z,14.43
2023-06-25T04:14:54.327Z,10.45
2023-06-25T04:17:27.391Z,9.23
2023-06-25T04:20:00.288Z,7.55
2023-06-25T04:22:32.843Z,10.32
2023-06-25T04:25:06.502Z,9.48
2023-06-25T04:27:39.423Z,12.35
2023-06-25T04:30:12.766Z,10.25
2023-06-25T04:32:45.548Z,14.57
2023-06-25T04:35:18.927Z,10.27
2023-06-25T04:37:51.483Z,9.50
2023-06-25T04:40:24.339Z,12.25
2023-06-25T04:42:56.911Z,11.13
2023-06-25T04:45:30.035Z,11.57
2023-06-25T04:48:02.762Z,11.18
2023-06-25T04:50:35.696Z,7.75
2023-06-25T04:53:08.272Z,5.88
2023-06-25T04:55:41.137Z,7.18
2023-06-25T04:58:13.739Z,7.55
2023-06-25T05:00:46.546Z,11.38
2023-06-25T05:03:19.306Z,9.77
2023-06-25T05:05:52.126Z,9.20
2023-06-25T05:08:24.694Z,10.70
2023-06-25T05:10:57.494Z,6.22
2023-06-25T05:13:31.779Z,9.57
2023-06-25T05:16:05.202Z,7.40
2023-06-25T05:18:39.510Z,9.43
2023-06-25T05:21:12.404Z,10.25
2023-06-25T05:23:57.850Z,6.93
2023-06-25T05:26:30.981Z,7.93
2023-06-25T05:29:03.754Z,5.70
2023-06-25T05:31:36.774Z,7.45
2023-06-25T05:34:12.501Z,6.25
2023-06-25T05:36:47.329Z,5.28
2023-06-25T05:39:19.904Z,6.80
2023-06-25T05:41:52.715Z,10.30
2023-06-25T05:45:17.214Z,11.35
2023-06-25T05:48:04.102Z,11.65
2023-06-25T05:50:38.992Z,6.57
2023-06-25T05:53:11.888Z,7.05
2023-06-25T05:55:44.488Z,12.18
2023-06-25T05:58:17.740Z,9.07
2023-06-25T06:00:50.330Z,6.05
2023-06-25T06:03:23.375Z,7.82
2023-06-25T06:05:57.627Z,7.50
2023-06-25T06:08:30.450Z,7.25
2023-06-25T06:11:03.058Z,4.38
2023-06-25T06:13:36.071Z,5.30
2023-06-25T06:16:08.692Z,5.18
2023-06-25T06:18:43.193Z,8.15
2023-06-25T06:21:17.259Z,7.35
2023-06-25T06:23:50.101Z,5.03
2023-06-25T06:26:22.724Z,7.57
2023-06-25T06:28:55.873Z,4.93
2023-06-25T06:31:28.501Z,4.90
2023-06-25T06:34:01.409Z,4.30
2023-06-25T06:36:34.215Z,5.72
2023-06-25T06:39:09.435Z,6.78
2023-06-25T06:41:42.373Z,5.68
2023-06-25T06:44:16.971Z,8.50
2023-06-25T06:46:49.550Z,7.32
2023-06-25T06:49:22.372Z,5.63
2023-06-25T06:51:54.960Z,4.38
2023-06-25T06:54:27.792Z,7.72
2023-06-25T06:57:00.369Z,4.90
2023-06-25T06:59:33.201Z,5.03
2023-06-25T07:02:06.331Z,6.05
2023-06-25T07:04:39.866Z,4.95
2023-06-25T07:07:12.606Z,5.05
2023-06-25T07:09:52.482Z,4.63
2023-06-25T07:12:26.019Z,7.35
2023-06-25T07:14:58.864Z,6.65
2023-06-25T07:17:31.477Z,4.72
2023-06-25T07:20:04.646Z,3.58
2023-06-25T07:22:39.212Z,4.97
2023-06-25T07:25:12.859Z,4.38
2023-06-25T07:27:45.445Z,3.50
2023-06-25T07:30:18.359Z,4.20
2023-06-25T07:32:51.009Z,5.03
2023-06-25T07:35:23.920Z,6.30
2023-06-25T07:37:56.563Z,5.20
2023-06-25T07:40:29.537Z,3.67
2023-06-25T07:43:04.169Z,5.70
2023-06-25T07:45:37.396Z,6.05
2023-06-25T07:48:10.181Z,3.58
2023-06-25T07:50:43.087Z,6.75
2023-06-25T07:53:15.617Z,4.50
2023-06-25T07:56:01.903Z,4.57
2023-06-25T07:58:35.968Z,3.10
2023-06-25T08:01:10.780Z,7.47
2023-06-25T08:03:51.237Z,5.95
2023-06-25T08:08:57.896Z,9.48
2023-06-25T08:11:30.822Z,5.03
2023-06-25T08:14:03.478Z,2.72
2023-06-25T08:16:36.473Z,7.28
2023-06-25T08:19:09.019Z,6.50
2023-06-25T08:21:41.851Z,7.38
2023-06-25T08:24:14.369Z,4.65
2023-06-25T08:26:47.140Z,3.50
2023-06-25T08:29:19.661Z,6.20
2023-06-25T08:31:54.294Z,3.13
2023-06-25T08:34:27.838Z,4.43
2023-06-25T08:37:00.666Z,4.80
2023-06-25T08:39:33.314Z,3.22
2023-06-25T08:42:06.628Z,2.92
2023-06-25T08:44:39.250Z,3.33
2023-06-25T08:47:19.270Z,4.55
2023-06-25T08:49:54.561Z,6.50
2023-06-25T08:52:27.941Z,2.90
2023-06-25T08:55:01.055Z,3.75
2023-06-25T08:57:34.025Z,2.15
2023-06-25T09:00:09.888Z,5.07
2023-06-25T09:02:43.336Z,3.10
2023-06-25T09:05:26.882Z,5.70
2023-06-25T09:08:00.246Z,4.28
2023-06-25T09:10:37.388Z,2.65
2023-06-25T09:13:11.482Z,5.70
2023-06-25T09:15:45.703Z,4.38
2023-06-25T09:18:25.024Z,3.13
2023-06-25T09:21:02.883Z,3.25
2023-06-25T09:23:39.804Z,3.55
2023-06-25T09:26:14.922Z,3.40
2023-06-25T09:28:54.256Z,4.32
2023-06-25T09:31:26.896Z,2.75
2023-06-25T09:33:59.769Z,2.58
2023-06-25T09:36:39.585Z,2.78
2023-06-25T09:39:14.150Z,4.57
2023-06-25T09:41:47.740Z,4.20
2023-06-25T09:44:22.454Z,3.30
2023-06-25T09:47:05.149Z,3.92
2023-06-25T09:49:38.617Z,4.53
2023-06-25T09:52:15.522Z,5.03
2023-06-25T09:54:49.948Z,5.63
2023-06-25T09:57:24.941Z,5.15
2023-06-25T09:59:59.186Z,3.13
2023-06-25T10:02:38.247Z,3.90
2023-06-25T10:05:32.965Z,5.78
2023-06-25T10:08:09.699Z,3.95
2023-06-25T10:10:42.828Z,3.42
2023-06-25T10:13:15.406Z,4.97
2023-06-25T10:16:01.243Z,5.10
2023-06-25T10:18:47.974Z,3.78
2023-06-25T10:21:28.633Z,2.90
2023-06-25T10:24:05.325Z,5.72
2023-06-25T10:26:38.174Z,2.33
2023-06-25T10:29:10.798Z,3.65
2023-06-25T10:31:47.576Z,4.22
2023-06-25T10:34:20.912Z,2.85
2023-06-25T10:36:53.754Z,4.72
2023-06-25T10:39:37.055Z,3.05
2023-06-25T10:42:10.168Z,3.45
2023-06-25T10:44:42.754Z,4.30
2023-06-25T10:47:16.147Z,3.22
2023-06-25T10:49:48.865Z,6.85
2023-06-25T10:52:22.083Z,2.50
2023-06-25T10:54:57.465Z,4.40
2023-06-25T10:57:32.801Z,8.07
2023-06-25T11:00:06.143Z,2.42
2023-06-25T11:02:39.098Z,5.03
2023-06-25T11:05:12.538Z,4.85
2023-06-25T11:07:45.720Z,2.05
2023-06-25T11:10:19.155Z,1.73
2023-06-25T11:12:52.261Z,1.95
2023-06-25T11:15:25.045Z,4.97
2023-06-25T11:17:57.922Z,3.25
2023-06-25T11:20:32.916Z,5.13
2023-06-25T11:23:05.861Z,2.38
2023-06-25T11:25:42.126Z,2.33
2023-06-25T11:28:16.595Z,8.07
2023-06-25T11:30:51.584Z,4.53
2023-06-25T11:33:27.730Z,2.88
2023-06-25T11:36:11.001Z,2.25
2023-06-25T11:38:48.400Z,3.67
2023-06-25T11:41:27.949Z,5.25
2023-06-25T11:44:00.976Z,5.13
2023-06-25T11:46:33.599Z,6.97
2023-06-25T11:49:06.508Z,4.50
2023-06-25T11:51:39.186Z,2.05
2023-06-25T11:54:12.810Z,3.58
2023-06-25T11:56:45.345Z,2.67
2023-06-25T11:59:18.223Z,4.22
2023-06-25T12:01:51.312Z,2.60
2023-06-25T12:04:24.181Z,1.92
2023-06-25T12:06:56.805Z,3.35
2023-06-25T12:09:29.783Z,2.35
2023-06-25T12:12:02.414Z,3.05
2023-06-25T12:14:35.270Z,5.18
2023-06-25T12:17:07.827Z,1.40
2023-06-25T12:19:40.864Z,2.42
2023-06-25T12:22:13.482Z,2.60
2023-06-25T12:24:46.409Z,6.05
2023-06-25T12:27:20.327Z,1.40
2023-06-25T12:29:55.396Z,1.65
2023-06-25T12:32:28.392Z,2.28
2023-06-25T12:35:01.289Z,2.05
2023-06-25T12:37:33.914Z,0.95
2023-06-25T12:40:07.336Z,1.85
2023-06-25T12:42:41.109Z,3.20
2023-06-25T12:45:13.993Z,1.95
2023-06-25T12:47:46.757Z,3.25
2023-06-25T12:50:19.888Z,1.70
2023-06-25T12:52:52.462Z,2.50
2023-06-25T12:55:25.290Z,2.03
2023-06-25T12:57:57.825Z,1.90
2023-06-25T13:00:43.140Z,1.98
2023-06-25T13:03:23.146Z,2.10
2023-06-25T13:05:56.651Z,1.50
2023-06-25T13:08:29.310Z,3.50
2023-06-25T13:11:05.923Z,3.25
2023-06-25T13:13:38.460Z,2.75
2023-06-25T13:16:11.410Z,4.07
2023-06-25T13:18:44.048Z,2.20
2023-06-25T13:21:19.921Z,2.65
2023-06-25T13:23:52.489Z,5.00
2023-06-25T13:26:26.440Z,2.70
2023-06-25T13:29:01.722Z,3.78
2023-06-25T13:31:41.133Z,2.90
2023-06-25T13:34:16.740Z,1.75
2023-06-25T13:36:49.705Z,1.90
2023-06-25T13:39:22.330Z,2.97
2023-06-25T13:42:00.324Z,3.92
2023-06-25T13:44:33.422Z,2.13
2023-06-25T13:47:06.855Z,2.47
2023-06-25T13:49:39.584Z,3.20
2023-06-25T13:52:12.571Z,1.90
2023-06-25T13:55:12.887Z,2.50
2023-06-25T13:57:48.696Z,2.88
2023-06-25T14:00:30.376Z,2.42
2023-06-25T14:03:13.413Z,3.92
2023-06-25T14:05:47.075Z,3.80
2023-06-25T14:08:24.040Z,3.42
2023-06-25T14:10:59.581Z,2.92
2023-06-25T14:13:33.541Z,2.30
2023-06-25T14:16:15.770Z,2.08
2023-06-25T14:18:49.615Z,3.25
2023-06-25T14:21:22.186Z,3.63
2023-06-25T14:23:56.241Z,4.38
2023-06-25T14:26:28.840Z,3.65
2023-06-25T14:29:11.318Z,4.30
2023-06-25T14:31:45.019Z,3.92
2023-06-25T14:34:17.909Z,3.92
2023-06-25T14:36:50.507Z,2.42
2023-06-25T14:39:23.913Z,5.30
2023-06-25T14:41:56.493Z,1.75
2023-06-25T14:44:29.331Z,2.10
2023-06-25T14:47:01.953Z,5.75
2023-06-25T14:49:34.791Z,3.33
2023-06-25T14:52:07.406Z,2.17
2023-06-25T14:54:40.332Z,3.67
2023-06-25T14:57:12.900Z,2.83
2023-06-25T14:59:46.058Z,3.53
2023-06-25T15:02:18.673Z,2.92
2023-06-25T15:04:51.676Z,2.58
2023-06-25T15:07:24.461Z,2.75
2023-06-25T15:09:57.647Z,4.10
2023-06-25T15:12:30.872Z,2.42
2023-06-25T15:15:04.948Z,2.00
2023-06-25T15:17:37.775Z,2.42
2023-06-25T15:20:10.875Z,2.45
2023-06-25T15:22:43.748Z,3.55
2023-06-25T15:25:16.734Z,4.70
2023-06-25T15:27:49.456Z,2.70
2023-06-25T15:30:22.456Z,3.00
2023-06-25T15:32:55.024Z,3.38
2023-06-25T15:35:27.865Z,2.90
2023-06-25T15:38:00.496Z,5.90
2023-06-25T15:40:33.398Z,8.82
2023-06-25T15:43:11.794Z,5.05
2023-06-25T15:45:44.954Z,2.38
2023-06-25T15:48:18.112Z,4.38
2023-06-25T15:50:51.112Z,3.10
2023-06-25T15:53:23.776Z,4.18
2023-06-25T15:55:57.103Z,8.07
2023-06-25T15:58:29.664Z,2.60
2023-06-25T16:01:04.708Z,3.97
2023-06-25T16:03:39.030Z,2.58
2023-06-25T16:06:12.580Z,3.35
2023-06-25T16:08:45.216Z,2.65
2023-06-25T16:11:18.126Z,2.13
2023-06-25T16:13:51.094Z,4.90
2023-06-25T16:16:23.931Z,3.03
2023-06-25T16:19:13.612Z,3.08
2023-06-25T16:21:49.378Z,2.58
2023-06-25T16:24:22.868Z,2.10
2023-06-25T16:26:55.714Z,3.92
2023-06-25T16:29:28.246Z,2.28
2023-06-25T16:32:01.180Z,4.10
2023-06-25T16:34:35.886Z,2.10
2023-06-25T16:37:08.730Z,2.65
2023-06-25T16:39:41.318Z,2.50
2023-06-25T16:42:14.275Z,6.60
2023-06-25T16:44:47.849Z,4.55
2023-06-25T16:47:20.810Z,5.03
2023-06-25T16:49:53.450Z,2.70
2023-06-25T16:52:26.510Z,6.18
2023-06-25T16:54:59.103Z,2.30
2023-06-25T16:57:31.979Z,2.40
2023-06-25T17:00:05.802Z,3.67
2023-06-25T17:02:38.892Z,3.13
2023-06-25T17:05:11.585Z,2.53
2023-06-25T17:07:44.488Z,3.90
2023-06-25T17:10:17.053Z,4.20
2023-06-25T17:12:50.137Z,3.53
2023-06-25T17:15:22.959Z,3.33
2023-06-25T17:17:57.684Z,3.50
2023-06-25T17:20:30.632Z,3.20
2023-06-25T17:23:05.885Z,2.38
2023-06-25T17:25:38.787Z,2.53
2023-06-25T17:28:11.856Z,6.65
2023-06-25T17:30:44.726Z,3.35
2023-06-25T17:33:17.577Z,2.95
2023-06-25T17:35:50.134Z,3.65
2023-06-25T17:38:22.976Z,5.22
2023-06-25T17:40:55.661Z,2.90
2023-06-25T17:43:30.363Z,3.00
2023-06-25T17:46:02.985Z,3.25
2023-06-25T17:48:35.897Z,4.78
2023-06-25T17:51:08.488Z,3.05
2023-06-25T17:53:41.411Z,5.85
2023-06-25T17:56:14.145Z,3.28
2023-06-25T17:58:46.983Z,3.63
2023-06-25T18:01:19.679Z,3.78
2023-06-25T18:03:52.684Z,2.53
2023-06-25T18:06:25.262Z,3.88
2023-06-25T18:08:58.138Z,4.85
2023-06-25T18:11:31.508Z,3.75
2023-06-25T18:14:04.472Z,3.75
2023-06-25T18:16:37.187Z,2.28
2023-06-25T18:19:10.107Z,2.22
2023-06-25T18:21:42.657Z,3.92
2023-06-25T18:24:16.089Z,3.30
2023-06-25T18:26:48.667Z,3.05
2023-06-25T18:29:21.574Z,3.00
2023-06-25T18:31:54.114Z,10.45
2023-06-25T18:34:27.022Z,5.15
2023-06-25T18:36:59.596Z,3.78
2023-06-25T18:39:32.571Z,4.30
2023-06-25T18:42:05.517Z,2.88
2023-06-25T18:44:38.343Z,3.05
2023-06-25T18:47:10.896Z,6.93
2023-06-25T18:50:06.178Z,5.53
2023-06-25T18:52:38.837Z,3.85
2023-06-25T18:55:11.846Z,4.57
2023-06-25T18:57:44.516Z,5.35
2023-06-25T19:00:17.665Z,6.60
2023-06-25T19:02:55.976Z,6.55
2023-06-25T19:05:34.452Z,5.20
2023-06-25T19:10:47.879Z,5.88
2023-06-25T19:13:24.047Z,6.75
2023-06-25T19:16:02.161Z,6.18
2023-06-25T19:18:51.719Z,7.63
2023-06-25T19:21:24.690Z,5.30
2023-06-25T19:23:57.304Z,4.65
2023-06-25T19:29:48.208Z,7.20
2023-06-25T19:32:24.241Z,4.85
2023-06-25T19:34:56.851Z,8.18
2023-06-25T19:37:36.309Z,10.43
2023-06-25T19:43:33.585Z,10.23
2023-06-25T19:46:06.609Z,7.05
2023-06-25T19:48:39.799Z,7.70
2023-06-25T19:51:12.816Z,7.35
2023-06-25T19:53:45.538Z,8.32
2023-06-25T19:56:18.436Z,9.35
2023-06-25T19:58:51.132Z,6.05
2023-06-25T20:01:34.715Z,4.85
2023-06-25T20:04:11.653Z,6.40
2023-06-25T20:06:45.098Z,5.38
2023-06-25T20:09:17.821Z,8.48
2023-06-25T20:11:51.015Z,4.95
2023-06-25T20:14:24.379Z,8.80
2023-06-25T20:16:57.768Z,6.95
2023-06-25T20:19:30.905Z,6.60
2023-06-25T20:22:03.853Z,5.75
2023-06-25T20:24:36.453Z,10.18
2023-06-25T20:27:09.629Z,6.18
2023-06-25T20:29:42.180Z,5.50
2023-06-25T20:32:15.175Z,6.40
2023-06-25T20:34:47.808Z,7.45
2023-06-25T20:37:20.712Z,5.38
2023-06-25T20:39:53.285Z,6.68
2023-06-25T20:42:26.164Z,5.72
2023-06-25T20:45:01.572Z,8.00
2023-06-25T20:47:40.596Z,10.45
2023-06-25T20:50:13.772Z,9.65
2023-06-25T20:52:46.653Z,9.55
2023-06-25T20:55:19.222Z,7.32
2023-06-25T20:57:55.324Z,6.50
2023-06-25T21:00:27.971Z,9.88
2023-06-25T21:03:00.914Z,7.45
2023-06-25T21:05:38.242Z,8.18
2023-06-25T21:08:11.183Z,7.45
2023-06-25T21:10:43.793Z,8.27
2023-06-25T21:13:21.809Z,12.32
2023-06-25T21:15:54.488Z,10.55
2023-06-25T21:18:27.363Z,7.72
2023-06-25T21:21:00.452Z,8.20
2023-06-25T21:23:33.408Z,10.38
2023-06-25T21:26:06.115Z,7.18
2023-06-25T21:28:38.949Z,10.32
2023-06-25T21:31:11.619Z,9.07
2023-06-25T21:33:44.551Z,7.07
2023-06-25T21:36:19.943Z,4.35
2023-06-25T21:38:52.953Z,8.50
2023-06-25T21:41:25.554Z,7.55
2023-06-25T21:43:58.361Z,7.30
2023-06-25T21:46:30.985Z,15.13
2023-06-25T21:49:03.934Z,11.55
2023-06-25T21:51:36.713Z,7.10
2023-06-25T21:54:09.616Z,7.72
2023-06-25T21:57:50.326Z,11.70
2023-06-25T22:05:02.166Z,3.47
2023-06-25T22:07:38.236Z,4.95
2023-06-25T22:10:10.905Z,4.05
2023-06-25T22:12:43.890Z,8.38
2023-06-25T22:15:17.458Z,6.40
2023-06-25T22:17:53.142Z,5.20
2023-06-25T22:20:29.018Z,5.82
2023-06-25T22:23:01.876Z,5.63
2023-06-25T22:25:34.425Z,5.30
2023-06-25T22:28:07.269Z,5.82
2023-06-25T22:30:40.103Z,6.53
2023-06-25T22:33:13.135Z,4.53
2023-06-25T22:35:47.993Z,8.52
2023-06-25T22:38:21.512Z,4.95
2023-06-25T22:40:56.004Z,4.32
2023-06-25T22:43:28.839Z,6.95
2023-06-25T22:46:01.411Z,5.85
2023-06-25T22:48:34.324Z,5.28
2023-06-25T22:51:06.852Z,4.10
2023-06-25T22:53:39.838Z,6.07
2023-06-25T22:56:12.488Z,5.05
2023-06-25T22:58:45.344Z,4.80
2023-06-25T23:01:18.274Z,4.88
2023-06-25T23:03:51.254Z,7.70
2023-06-25T23:06:23.897Z,9.60
2023-06-25T23:08:56.741Z,10.40
2023-06-25T23:11:29.275Z,7.88
2023-06-25T23:14:02.382Z,6.20
2023-06-25T23:16:35.307Z,12.38
2023-06-25T23:19:08.384Z,7.50
2023-06-25T23:21:46.985Z,5.97
2023-06-25T23:24:20.034Z,11.20
2023-06-25T23:26:52.627Z,10.52
2023-06-25T23:29:25.451Z,6.85
2023-06-25T23:31:58.081Z,6.13
2023-06-25T23:34:32.552Z,7.45
2023-06-25T23:37:05.311Z,4.88
2023-06-25T23:39:38.578Z,9.45
2023-06-25T23:42:11.148Z,5.13
2023-06-25T23:44:43.986Z,7.75
2023-06-25T23:47:16.504Z,7.32
2023-06-25T23:49:49.337Z,5.47
2023-06-25T23:52:22.016Z,9.93
2023-06-25T23:54:54.808Z,4.93
2023-06-25T23:57:27.477Z,7.07
